Date,TemperatureHighF,TemperatureAvgF,TemperatureLowF,DewpointHighF,DewpointAvgF,DewpointLowF,HumidityHigh,HumidityAvg,HumidityLow,PressureMaxIn,PressureMinIn,WindSpeedMaxMPH,WindSpeedAvgMPH,GustSpeedMaxMPH,PrecipitationSumIn
2013-2-1,59.0,46.6,38.0,48.0,41.6,38.0,98,84,57,0.00,40.00,6,3,12,0.00
2013-2-2,53.0,44.1,35.0,49.0,41.8,35.0,99,92,73,0.00,40.00,5,1,15,0.00
2013-2-3,52.0,48.0,41.0,46.0,43.6,40.0,96,85,69,0.00,40.00,4,2,8,0.00
2013-2-4,51.0,43.8,36.0,46.0,41.1,35.0,99,91,81,0.00,40.00,7,2,21,0.00
2013-2-5,54.0,48.7,46.0,48.0,45.2,41.0,96,87,77,0.00,40.00,7,5,21,0.00
2013-2-6,53.0,47.2,40.0,46.0,43.3,38.0,96,87,65,0.00,40.00,10,5,25,0.02
2013-2-7,42.0,39.2,35.0,41.0,38.6,35.0,99,97,96,0.00,40.00,5,2,19,0.04
2013-2-8,49.0,41.4,34.0,40.0,37.0,34.0,99,84,65,0.00,40.00,10,4,22,0.01
2013-2-9,51.0,42.4,35.0,42.0,37.3,33.0,95,83,55,0.00,40.00,7,3,17,0.00
2013-2-10,51.0,45.5,41.0,43.0,40.2,37.0,97,82,64,0.00,40.00,7,4,14,0.00
2013-2-11,54.0,46.7,43.0,45.0,38.5,35.0,97,74,54,0.00,40.00,7,5,16,0.00
2013-2-12,52.0,47.3,45.0,50.0,46.5,44.0,98,96,90,0.00,40.00,6,2,11,0.00
2013-2-13,53.0,47.6,43.0,48.0,45.8,42.0,98,93,80,0.00,40.00,6,2,11,0.00
2013-2-14,54.0,48.0,41.0,47.0,44.6,41.0,98,88,71,0.00,40.00,10,4,18,0.00
2013-2-15,64.0,51.1,44.0,47.0,43.7,42.0,97,78,48,0.00,40.00,4,2,10,0.00
2013-2-16,51.0,47.3,43.0,46.0,44.3,41.0,97,90,73,0.00,40.00,7,3,14,0.00
2013-2-17,51.0,43.9,38.0,42.0,37.7,35.0,96,79,58,0.00,40.00,11,4,21,0.00
2013-2-18,49.0,40.5,34.0,41.0,37.5,33.0,96,89,71,0.00,40.00,6,2,19,0.00
2013-2-19,46.0,41.5,37.0,41.0,38.6,36.0,98,89,74,0.00,40.00,6,3,14,0.03
2013-2-20,49.0,41.7,33.0,43.0,39.1,33.0,98,91,72,0.00,40.00,4,2,10,0.01
2013-2-21,48.0,43.6,37.0,43.0,39.3,36.0,98,85,70,0.00,40.00,4,2,11,0.00
2013-2-22,48.0,45.9,44.0,45.0,43.2,38.0,97,89,76,0.00,40.00,11,6,31,0.02
2013-2-23,49.0,43.2,36.0,40.0,37.3,34.0,95,79,63,0.00,40.00,8,3,27,0.01
2013-2-24,51.0,42.6,33.0,43.0,36.2,32.0,95,79,53,0.00,40.00,6,2,16,0.00
2013-2-25,50.0,44.9,34.0,45.0,39.1,33.0,97,81,61,0.00,40.00,8,3,19,0.01
2013-2-26,49.0,40.0,34.0,40.0,35.7,32.0,97,86,52,0.00,40.00,5,1,9,0.00
2013-2-27,54.0,47.6,40.0,50.0,43.5,38.0,97,86,54,0.00,40.00,8,3,20,0.01
2013-2-28,53.0,51.4,51.0,52.0,50.5,50.0,98,96,94,0.00,40.00,9,7,24,0.02